sensor_id;sensor_type;location;lat;lon;timestamp;temperature;humidity
39189;DHT22;24915;50.858;4.376;2023-10-08T00:01:53;17.00;99.90
39189;DHT22;24915;50.858;4.376;2023-10-08T00:04:21;17.00;99.90
39189;DHT22;24915;50.858;4.376;2023-10-08T00:06:47;17.00;99.90
39189;DHT22;24915;50.858;4.376;2023-10-08T00:09:13;17.00;99.90
39189;DHT22;24915;50.858;4.376;2023-10-08T00:11:40;16.90;99.90
39189;DHT22;24915;50.858;4.376;2023-10-08T00:14:06;16.90;99.90
39189;DHT22;24915;50.858;4.376;2023-10-08T00:16:36;16.90;99.90
39189;DHT22;24915;50.858;4.376;2023-10-08T00:19:08;16.80;99.90
39189;DHT22;24915;50.858;4.376;2023-10-08T00:21:35;16.80;99.90
39189;DHT22;24915;50.858;4.376;2023-10-08T00:24:03;16.80;99.90
39189;DHT22;24915;50.858;4.376;2023-10-08T00:26:33;16.80;99.90
39189;DHT22;24915;50.858;4.376;2023-10-08T00:31:27;16.70;99.90
39189;DHT22;24915;50.858;4.376;2023-10-08T00:33:57;16.70;99.90
39189;DHT22;24915;50.858;4.376;2023-10-08T00:36:23;16.70;99.90
39189;DHT22;24915;50.858;4.376;2023-10-08T00:38:50;16.70;99.90
39189;DHT22;24915;50.858;4.376;2023-10-08T00:41:24;16.60;99.90
39189;DHT22;24915;50.858;4.376;2023-10-08T00:43:54;16.60;99.90
39189;DHT22;24915;50.858;4.376;2023-10-08T00:46:25;16.60;99.90
39189;DHT22;24915;50.858;4.376;2023-10-08T00:49:00;16.60;99.90
39189;DHT22;24915;50.858;4.376;2023-10-08T00:51:55;16.60;99.90
39189;DHT22;24915;50.858;4.376;2023-10-08T00:54:33;16.60;99.90
39189;DHT22;24915;50.858;4.376;2023-10-08T00:57:05;16.60;99.90
39189;DHT22;24915;50.858;4.376;2023-10-08T00:59:33;16.60;99.90
39189;DHT22;24915;50.858;4.376;2023-10-08T01:02:07;16.50;99.90
39189;DHT22;24915;50.858;4.376;2023-10-08T01:04:40;16.50;99.90
39189;DHT22;24915;50.858;4.376;2023-10-08T01:07:06;16.50;99.90
39189;DHT22;24915;50.858;4.376;2023-10-08T01:09:44;16.50;99.90
39189;DHT22;24915;50.858;4.376;2023-10-08T01:12:21;16.40;99.90
39189;DHT22;24915;50.858;4.376;2023-10-08T01:14:49;16.50;99.90
39189;DHT22;24915;50.858;4.376;2023-10-08T01:17:19;16.40;99.90
39189;DHT22;24915;50.858;4.376;2023-10-08T01:19:50;16.40;99.90
39189;DHT22;24915;50.858;4.376;2023-10-08T01:22:46;16.40;99.90
39189;DHT22;24915;50.858;4.376;2023-10-08T01:25:11;16.40;99.90
39189;DHT22;24915;50.858;4.376;2023-10-08T01:27:46;16.30;99.90
39189;DHT22;24915;50.858;4.376;2023-10-08T01:30:12;16.30;99.90
39189;DHT22;24915;50.858;4.376;2023-10-08T01:32:44;16.20;99.90
39189;DHT22;24915;50.858;4.376;2023-10-08T01:35:10;16.20;99.90
39189;DHT22;24915;50.858;4.376;2023-10-08T01:37:49;16.20;99.90
39189;DHT22;24915;50.858;4.376;2023-10-08T01:40:16;16.20;99.90
39189;DHT22;24915;50.858;4.376;2023-10-08T01:42:43;16.20;99.90
39189;DHT22;24915;50.858;4.376;2023-10-08T01:45:09;16.10;99.90
39189;DHT22;24915;50.858;4.376;2023-10-08T01:47:38;16.10;99.90
39189;DHT22;24915;50.858;4.376;2023-10-08T01:50:04;16.10;99.90
39189;DHT22;24915;50.858;4.376;2023-10-08T01:52:47;16.10;99.90
39189;DHT22;24915;50.858;4.376;2023-10-08T01:55:13;16.00;99.90
39189;DHT22;24915;50.858;4.376;2023-10-08T01:57:44;16.00;99.90
39189;DHT22;24915;50.858;4.376;2023-10-08T02:00:10;16.00;99.90
39189;DHT22;24915;50.858;4.376;2023-10-08T02:02:36;16.00;99.90
39189;DHT22;24915;50.858;4.376;2023-10-08T02:05:02;16.00;99.90
39189;DHT22;24915;50.858;4.376;2023-10-08T02:07:29;16.00;99.90
39189;DHT22;24915;50.858;4.376;2023-10-08T02:09:56;16.00;99.90
39189;DHT22;24915;50.858;4.376;2023-10-08T02:12:23;16.00;99.90
39189;DHT22;24915;50.858;4.376;2023-10-08T02:14:49;16.00;99.90
39189;DHT22;24915;50.858;4.376;2023-10-08T02:17:15;16.00;99.90
39189;DHT22;24915;50.858;4.376;2023-10-08T02:19:40;15.90;99.90
39189;DHT22;24915;50.858;4.376;2023-10-08T02:22:07;16.00;99.90
39189;DHT22;24915;50.858;4.376;2023-10-08T02:24:36;15.90;99.90
39189;DHT22;24915;50.858;4.376;2023-10-08T02:27:02;15.90;99.90
39189;DHT22;24915;50.858;4.376;2023-10-08T02:29:30;15.90;99.90
39189;DHT22;24915;50.858;4.376;2023-10-08T02:31:58;15.90;99.90
39189;DHT22;24915;50.858;4.376;2023-10-08T02:34:25;15.90;99.90
39189;DHT22;24915;50.858;4.376;2023-10-08T02:36:50;15.90;99.90
39189;DHT22;24915;50.858;4.376;2023-10-08T02:39:16;15.80;99.90
39189;DHT22;24915;50.858;4.376;2023-10-08T02:41:48;15.80;99.90
39189;DHT22;24915;50.858;4.376;2023-10-08T02:44:14;15.80;99.90
39189;DHT22;24915;50.858;4.376;2023-10-08T02:46:41;15.80;99.90
39189;DHT22;24915;50.858;4.376;2023-10-08T02:49:08;15.80;99.90
39189;DHT22;24915;50.858;4.376;2023-10-08T02:51:39;15.80;99.90
39189;DHT22;24915;50.858;4.376;2023-10-08T02:54:07;15.80;99.90
39189;DHT22;24915;50.858;4.376;2023-10-08T02:56:34;15.80;99.90
39189;DHT22;24915;50.858;4.376;2023-10-08T02:59:00;15.80;99.90
39189;DHT22;24915;50.858;4.376;2023-10-08T03:01:27;15.80;99.90
39189;DHT22;24915;50.858;4.376;2023-10-08T03:03:53;15.80;99.90
39189;DHT22;24915;50.858;4.376;2023-10-08T03:06:29;15.80;99.90
39189;DHT22;24915;50.858;4.376;2023-10-08T03:08:58;15.80;99.90
39189;DHT22;24915;50.858;4.376;2023-10-08T03:11:30;15.70;99.90
39189;DHT22;24915;50.858;4.376;2023-10-08T03:13:57;15.80;99.90
39189;DHT22;24915;50.858;4.376;2023-10-08T03:16:22;15.70;99.90
39189;DHT22;24915;50.858;4.376;2023-10-08T03:18:54;15.70;99.90
39189;DHT22;24915;50.858;4.376;2023-10-08T03:21:23;15.70;99.90
39189;DHT22;24915;50.858;4.376;2023-10-08T03:24:09;15.70;99.90
39189;DHT22;24915;50.858;4.376;2023-10-08T03:26:49;15.70;99.90
39189;DHT22;24915;50.858;4.376;2023-10-08T03:29:21;15.70;99.90
39189;DHT22;24915;50.858;4.376;2023-10-08T03:31:47;15.70;99.90
39189;DHT22;24915;50.858;4.376;2023-10-08T03:34:14;15.70;99.90
39189;DHT22;24915;50.858;4.376;2023-10-08T03:36:41;15.70;99.90
39189;DHT22;24915;50.858;4.376;2023-10-08T03:39:11;15.60;99.90
39189;DHT22;24915;50.858;4.376;2023-10-08T03:41:42;15.70;99.90
39189;DHT22;24915;50.858;4.376;2023-10-08T03:44:17;15.70;99.90
39189;DHT22;24915;50.858;4.376;2023-10-08T03:46:43;15.60;99.90
39189;DHT22;24915;50.858;4.376;2023-10-08T03:49:09;15.60;99.90
39189;DHT22;24915;50.858;4.376;2023-10-08T03:51:47;15.60;99.90
39189;DHT22;24915;50.858;4.376;2023-10-08T03:54:17;15.60;99.90
39189;DHT22;24915;50.858;4.376;2023-10-08T03:56:45;15.60;99.90
39189;DHT22;24915;50.858;4.376;2023-10-08T03:59:12;15.60;99.90
39189;DHT22;24915;50.858;4.376;2023-10-08T04:01:42;15.50;99.90
39189;DHT22;24915;50.858;4.376;2023-10-08T04:04:08;15.50;99.90
39189;DHT22;24915;50.858;4.376;2023-10-08T04:06:40;15.50;99.90
39189;DHT22;24915;50.858;4.376;2023-10-08T04:09:15;15.50;99.90
39189;DHT22;24915;50.858;4.376;2023-10-08T04:11:50;15.50;99.90
39189;DHT22;24915;50.858;4.376;2023-10-08T04:14:22;15.50;99.90
39189;DHT22;24915;50.858;4.376;2023-10-08T04:16:49;15.50;99.90
39189;DHT22;24915;50.858;4.376;2023-10-08T04:19:19;15.50;99.90
39189;DHT22;24915;50.858;4.376;2023-10-08T04:21:46;15.50;99.90
39189;DHT22;24915;50.858;4.376;2023-10-08T04:24:20;15.50;99.90
39189;DHT22;24915;50.858;4.376;2023-10-08T04:26:46;15.40;99.90
39189;DHT22;24915;50.858;4.376;2023-10-08T04:29:12;15.50;99.90
39189;DHT22;24915;50.858;4.376;2023-10-08T04:31:42;15.40;99.90
39189;DHT22;24915;50.858;4.376;2023-10-08T04:34:12;15.50;99.90
39189;DHT22;24915;50.858;4.376;2023-10-08T04:36:43;15.40;99.90
39189;DHT22;24915;50.858;4.376;2023-10-08T04:39:10;15.40;99.90
39189;DHT22;24915;50.858;4.376;2023-10-08T04:41:43;15.40;99.90
39189;DHT22;24915;50.858;4.376;2023-10-08T04:44:09;15.40;99.90
39189;DHT22;24915;50.858;4.376;2023-10-08T04:46:43;15.40;99.90
39189;DHT22;24915;50.858;4.376;2023-10-08T04:49:15;15.40;99.90
39189;DHT22;24915;50.858;4.376;2023-10-08T04:52:04;15.40;99.90
39189;DHT22;24915;50.858;4.376;2023-10-08T04:54:41;15.40;99.90
39189;DHT22;24915;50.858;4.376;2023-10-08T04:57:12;15.40;99.90
39189;DHT22;24915;50.858;4.376;2023-10-08T04:59:42;15.30;99.90
39189;DHT22;24915;50.858;4.376;2023-10-08T05:02:09;15.40;99.90
39189;DHT22;24915;50.858;4.376;2023-10-08T05:04:43;15.40;99.90
39189;DHT22;24915;50.858;4.376;2023-10-08T05:07:22;15.40;99.90
39189;DHT22;24915;50.858;4.376;2023-10-08T05:10:26;15.30;99.90
39189;DHT22;24915;50.858;4.376;2023-10-08T05:12:53;15.40;99.90
39189;DHT22;24915;50.858;4.376;2023-10-08T05:15:31;15.30;99.90
39189;DHT22;24915;50.858;4.376;2023-10-08T05:18:08;15.30;99.90
39189;DHT22;24915;50.858;4.376;2023-10-08T05:20:49;15.30;99.90
39189;DHT22;24915;50.858;4.376;2023-10-08T05:23:17;15.30;99.90
39189;DHT22;24915;50.858;4.376;2023-10-08T05:25:49;15.30;99.90
39189;DHT22;24915;50.858;4.376;2023-10-08T05:28:31;15.30;99.90
39189;DHT22;24915;50.858;4.376;2023-10-08T05:31:11;15.30;99.90
39189;DHT22;24915;50.858;4.376;2023-10-08T05:33:37;15.30;99.90
39189;DHT22;24915;50.858;4.376;2023-10-08T05:36:35;15.30;99.90
39189;DHT22;24915;50.858;4.376;2023-10-08T05:39:26;15.30;99.90
39189;DHT22;24915;50.858;4.376;2023-10-08T05:41:58;15.30;99.90
39189;DHT22;24915;50.858;4.376;2023-10-08T05:44:41;15.30;99.90
39189;DHT22;24915;50.858;4.376;2023-10-08T05:47:13;15.20;99.90
39189;DHT22;24915;50.858;4.376;2023-10-08T05:49:54;15.20;99.90
39189;DHT22;24915;50.858;4.376;2023-10-08T05:52:39;15.30;99.90
39189;DHT22;24915;50.858;4.376;2023-10-08T05:55:30;15.30;99.90
39189;DHT22;24915;50.858;4.376;2023-10-08T05:58:12;15.30;99.90
39189;DHT22;24915;50.858;4.376;2023-10-08T06:00:40;15.30;99.90
39189;DHT22;24915;50.858;4.376;2023-10-08T06:03:30;15.30;99.90
39189;DHT22;24915;50.858;4.376;2023-10-08T06:06:05;15.30;99.90
39189;DHT22;24915;50.858;4.376;2023-10-08T06:08:40;15.30;99.90
39189;DHT22;24915;50.858;4.376;2023-10-08T06:11:37;15.30;99.90
39189;DHT22;24915;50.858;4.376;2023-10-08T06:14:09;15.30;99.90
39189;DHT22;24915;50.858;4.376;2023-10-08T06:17:02;15.30;99.90
39189;DHT22;24915;50.858;4.376;2023-10-08T06:19:42;15.30;99.90
39189;DHT22;24915;50.858;4.376;2023-10-08T06:22:09;15.30;99.90
39189;DHT22;24915;50.858;4.376;2023-10-08T06:24:35;15.30;99.90
39189;DHT22;24915;50.858;4.376;2023-10-08T06:27:04;15.30;99.90
39189;DHT22;24915;50.858;4.376;2023-10-08T06:29:31;15.40;99.90
39189;DHT22;24915;50.858;4.376;2023-10-08T06:31:57;15.50;99.90
39189;DHT22;24915;50.858;4.376;2023-10-08T06:34:28;15.40;99.90
39189;DHT22;24915;50.858;4.376;2023-10-08T06:36:55;15.50;99.90
39189;DHT22;24915;50.858;4.376;2023-10-08T06:39:22;15.50;99.90
39189;DHT22;24915;50.858;4.376;2023-10-08T06:41:54;15.60;99.90
39189;DHT22;24915;50.858;4.376;2023-10-08T06:44:22;15.60;99.90
39189;DHT22;24915;50.858;4.376;2023-10-08T06:46:48;15.70;99.90
39189;DHT22;24915;50.858;4.376;2023-10-08T06:49:14;15.80;99.90
39189;DHT22;24915;50.858;4.376;2023-10-08T06:51:42;15.90;99.90
39189;DHT22;24915;50.858;4.376;2023-10-08T06:54:09;15.90;99.90
39189;DHT22;24915;50.858;4.376;2023-10-08T06:56:42;15.90;99.90
39189;DHT22;24915;50.858;4.376;2023-10-08T06:59:13;16.00;99.90
39189;DHT22;24915;50.858;4.376;2023-10-08T07:01:38;16.10;99.90
39189;DHT22;24915;50.858;4.376;2023-10-08T07:04:05;16.20;99.90
39189;DHT22;24915;50.858;4.376;2023-10-08T07:06:32;16.20;99.90
39189;DHT22;24915;50.858;4.376;2023-10-08T07:09:02;16.30;99.90
39189;DHT22;24915;50.858;4.376;2023-10-08T07:11:34;16.40;99.90
39189;DHT22;24915;50.858;4.376;2023-10-08T07:14:05;16.40;99.90
39189;DHT22;24915;50.858;4.376;2023-10-08T07:16:34;16.50;99.90
39189;DHT22;24915;50.858;4.376;2023-10-08T07:19:00;16.50;99.90
39189;DHT22;24915;50.858;4.376;2023-10-08T07:21:46;16.60;99.90
39189;DHT22;24915;50.858;4.376;2023-10-08T07:24:14;16.70;99.90
39189;DHT22;24915;50.858;4.376;2023-10-08T07:26:47;16.80;99.90
39189;DHT22;24915;50.858;4.376;2023-10-08T07:29:15;16.90;99.90
39189;DHT22;24915;50.858;4.376;2023-10-08T07:31:46;16.80;99.90
39189;DHT22;24915;50.858;4.376;2023-10-08T07:34:18;16.80;99.90
39189;DHT22;24915;50.858;4.376;2023-10-08T07:36:48;16.70;99.90
39189;DHT22;24915;50.858;4.376;2023-10-08T07:39:15;16.70;99.90
39189;DHT22;24915;50.858;4.376;2023-10-08T07:42:03;16.70;99.90
39189;DHT22;24915;50.858;4.376;2023-10-08T07:44:34;16.70;99.90
39189;DHT22;24915;50.858;4.376;2023-10-08T07:47:01;16.90;99.90
39189;DHT22;24915;50.858;4.376;2023-10-08T07:49:31;17.00;99.90
39189;DHT22;24915;50.858;4.376;2023-10-08T07:51:57;17.10;99.90
39189;DHT22;24915;50.858;4.376;2023-10-08T07:54:25;17.10;99.90
39189;DHT22;24915;50.858;4.376;2023-10-08T07:56:54;17.20;99.90
39189;DHT22;24915;50.858;4.376;2023-10-08T07:59:37;17.30;99.90
39189;DHT22;24915;50.858;4.376;2023-10-08T08:02:14;17.50;99.90
39189;DHT22;24915;50.858;4.376;2023-10-08T08:04:41;17.50;99.90
39189;DHT22;24915;50.858;4.376;2023-10-08T08:07:09;17.70;99.90
39189;DHT22;24915;50.858;4.376;2023-10-08T08:09:51;17.80;99.90
39189;DHT22;24915;50.858;4.376;2023-10-08T08:12:23;17.80;99.90
39189;DHT22;24915;50.858;4.376;2023-10-08T08:14:51;17.90;99.90
39189;DHT22;24915;50.858;4.376;2023-10-08T08:17:18;17.90;99.90
39189;DHT22;24915;50.858;4.376;2023-10-08T08:19:45;17.90;99.90
39189;DHT22;24915;50.858;4.376;2023-10-08T08:22:13;17.90;99.90
39189;DHT22;24915;50.858;4.376;2023-10-08T08:24:53;17.90;99.90
39189;DHT22;24915;50.858;4.376;2023-10-08T08:27:22;18.00;99.90
39189;DHT22;24915;50.858;4.376;2023-10-08T08:29:52;18.10;99.90
39189;DHT22;24915;50.858;4.376;2023-10-08T08:32:22;18.10;99.90
39189;DHT22;24915;50.858;4.376;2023-10-08T08:34:49;18.20;99.90
39189;DHT22;24915;50.858;4.376;2023-10-08T08:37:19;18.30;99.90
39189;DHT22;24915;50.858;4.376;2023-10-08T08:39:48;18.30;99.90
39189;DHT22;24915;50.858;4.376;2023-10-08T08:42:14;18.40;99.90
39189;DHT22;24915;50.858;4.376;2023-10-08T08:44:44;18.50;99.90
39189;DHT22;24915;50.858;4.376;2023-10-08T08:47:17;18.60;99.90
39189;DHT22;24915;50.858;4.376;2023-10-08T08:49:44;18.80;99.90
39189;DHT22;24915;50.858;4.376;2023-10-08T08:52:13;19.00;99.90
39189;DHT22;24915;50.858;4.376;2023-10-08T08:54:42;19.10;99.90
39189;DHT22;24915;50.858;4.376;2023-10-08T08:57:09;19.10;99.90
39189;DHT22;24915;50.858;4.376;2023-10-08T08:59:53;19.10;99.90
39189;DHT22;24915;50.858;4.376;2023-10-08T09:02:19;19.10;99.90
39189;DHT22;24915;50.858;4.376;2023-10-08T09:04:47;19.20;99.90
39189;DHT22;24915;50.858;4.376;2023-10-08T09:07:14;19.30;99.90
39189;DHT22;24915;50.858;4.376;2023-10-08T09:09:40;19.40;99.90
39189;DHT22;24915;50.858;4.376;2023-10-08T09:12:07;19.60;99.90
39189;DHT22;24915;50.858;4.376;2023-10-08T09:14:36;19.80;99.90
39189;DHT22;24915;50.858;4.376;2023-10-08T09:17:04;20.00;99.90
39189;DHT22;24915;50.858;4.376;2023-10-08T09:19:36;20.20;99.90
39189;DHT22;24915;50.858;4.376;2023-10-08T09:24:36;20.40;99.90
39189;DHT22;24915;50.858;4.376;2023-10-08T09:27:08;20.50;99.90
39189;DHT22;24915;50.858;4.376;2023-10-08T09:29:34;20.70;99.90
39189;DHT22;24915;50.858;4.376;2023-10-08T09:32:11;20.80;99.90
39189;DHT22;24915;50.858;4.376;2023-10-08T09:34:39;20.80;99.90
39189;DHT22;24915;50.858;4.376;2023-10-08T09:37:06;20.80;99.90
39189;DHT22;24915;50.858;4.376;2023-10-08T09:39:33;20.80;99.90
39189;DHT22;24915;50.858;4.376;2023-10-08T09:42:03;20.80;99.90
39189;DHT22;24915;50.858;4.376;2023-10-08T09:44:32;20.90;99.90
39189;DHT22;24915;50.858;4.376;2023-10-08T09:47:06;21.00;99.90
39189;DHT22;24915;50.858;4.376;2023-10-08T09:49:38;21.10;99.90
39189;DHT22;24915;50.858;4.376;2023-10-08T09:52:07;21.30;99.90
39189;DHT22;24915;50.858;4.376;2023-10-08T09:54:56;21.50;99.90
39189;DHT22;24915;50.858;4.376;2023-10-08T09:57:24;21.80;99.90
39189;DHT22;24915;50.858;4.376;2023-10-08T09:59:52;22.10;99.90
39189;DHT22;24915;50.858;4.376;2023-10-08T10:02:19;22.30;99.90
39189;DHT22;24915;50.858;4.376;2023-10-08T10:04:50;22.50;99.90
39189;DHT22;24915;50.858;4.376;2023-10-08T10:07:18;22.70;99.90
39189;DHT22;24915;50.858;4.376;2023-10-08T10:09:54;22.90;99.90
39189;DHT22;24915;50.858;4.376;2023-10-08T10:12:25;23.10;99.90
39189;DHT22;24915;50.858;4.376;2023-10-08T10:14:53;23.30;99.90
39189;DHT22;24915;50.858;4.376;2023-10-08T10:17:25;23.60;99.90
39189;DHT22;24915;50.858;4.376;2023-10-08T10:19:59;23.60;99.90
39189;DHT22;24915;50.858;4.376;2023-10-08T10:22:33;23.40;99.90
39189;DHT22;24915;50.858;4.376;2023-10-08T10:25:03;23.40;99.90
39189;DHT22;24915;50.858;4.376;2023-10-08T10:28:26;23.50;99.90
39189;DHT22;24915;50.858;4.376;2023-10-08T10:30:30;23.60;99.90
39189;DHT22;24915;50.858;4.376;2023-10-08T10:32:59;23.60;99.90
39189;DHT22;24915;50.858;4.376;2023-10-08T10:35:25;23.70;99.90
39189;DHT22;24915;50.858;4.376;2023-10-08T10:37:53;23.90;99.90
39189;DHT22;24915;50.858;4.376;2023-10-08T10:40:23;24.10;99.90
39189;DHT22;24915;50.858;4.376;2023-10-08T10:43:08;24.50;99.90
39189;DHT22;24915;50.858;4.376;2023-10-08T10:45:41;24.60;99.90
39189;DHT22;24915;50.858;4.376;2023-10-08T10:48:12;24.60;99.90
39189;DHT22;24915;50.858;4.376;2023-10-08T10:50:41;24.80;99.90
39189;DHT22;24915;50.858;4.376;2023-10-08T10:53:25;25.00;99.90
39189;DHT22;24915;50.858;4.376;2023-10-08T10:55:54;25.00;99.90
39189;DHT22;24915;50.858;4.376;2023-10-08T10:58:35;25.20;99.90
39189;DHT22;24915;50.858;4.376;2023-10-08T11:01:10;25.50;99.90
39189;DHT22;24915;50.858;4.376;2023-10-08T11:04:01;25.50;99.80
39189;DHT22;24915;50.858;4.376;2023-10-08T11:06:31;25.90;99.60
39189;DHT22;24915;50.858;4.376;2023-10-08T11:09:01;26.20;99.40
39189;DHT22;24915;50.858;4.376;2023-10-08T11:11:28;26.30;98.50
39189;DHT22;24915;50.858;4.376;2023-10-08T11:13:59;26.30;98.50
39189;DHT22;24915;50.858;4.376;2023-10-08T11:16:26;26.50;98.60
39189;DHT22;24915;50.858;4.376;2023-10-08T11:18:53;26.90;98.60
39189;DHT22;24915;50.858;4.376;2023-10-08T11:21:23;26.90;97.40
39189;DHT22;24915;50.858;4.376;2023-10-08T11:23:51;26.40;97.90
39189;DHT22;24915;50.858;4.376;2023-10-08T11:26:26;26.20;98.30
39189;DHT22;24915;50.858;4.376;2023-10-08T11:28:59;26.00;98.40
39189;DHT22;24915;50.858;4.376;2023-10-08T11:31:27;26.00;98.40
39189;DHT22;24915;50.858;4.376;2023-10-08T11:33:59;25.70;98.40
39189;DHT22;24915;50.858;4.376;2023-10-08T11:36:27;25.50;98.70
39189;DHT22;24915;50.858;4.376;2023-10-08T11:39:08;25.60;98.70
39189;DHT22;24915;50.858;4.376;2023-10-08T11:41:34;25.70;98.60
39189;DHT22;24915;50.858;4.376;2023-10-08T11:44:15;26.00;99.00
39189;DHT22;24915;50.858;4.376;2023-10-08T11:46:45;26.50;97.60
39189;DHT22;24915;50.858;4.376;2023-10-08T11:49:12;26.40;97.60
39189;DHT22;24915;50.858;4.376;2023-10-08T11:51:44;26.20;97.70
39189;DHT22;24915;50.858;4.376;2023-10-08T11:54:11;25.70;98.10
39189;DHT22;24915;50.858;4.376;2023-10-08T11:56:38;25.40;98.50
39189;DHT22;24915;50.858;4.376;2023-10-08T11:59:05;25.70;99.00
39189;DHT22;24915;50.858;4.376;2023-10-08T12:01:39;26.20;98.60
39189;DHT22;24915;50.858;4.376;2023-10-08T12:04:09;27.00;98.10
39189;DHT22;24915;50.858;4.376;2023-10-08T12:06:41;27.70;97.00
39189;DHT22;24915;50.858;4.376;2023-10-08T12:09:15;27.90;96.20
39189;DHT22;24915;50.858;4.376;2023-10-08T12:11:41;27.90;95.20
39189;DHT22;24915;50.858;4.376;2023-10-08T12:14:08;27.80;95.60
39189;DHT22;24915;50.858;4.376;2023-10-08T12:16:34;27.80;95.80
39189;DHT22;24915;50.858;4.376;2023-10-08T12:19:05;27.80;95.40
39189;DHT22;24915;50.858;4.376;2023-10-08T12:21:41;27.60;95.10
39189;DHT22;24915;50.858;4.376;2023-10-08T12:24:07;27.30;95.40
39189;DHT22;24915;50.858;4.376;2023-10-08T12:26:36;27.30;96.00
39189;DHT22;24915;50.858;4.376;2023-10-08T12:29:02;27.80;96.10
39189;DHT22;24915;50.858;4.376;2023-10-08T12:31:27;28.20;94.70
39189;DHT22;24915;50.858;4.376;2023-10-08T12:33:55;28.20;94.60
39189;DHT22;24915;50.858;4.376;2023-10-08T12:36:26;28.20;94.60
39189;DHT22;24915;50.858;4.376;2023-10-08T12:38:52;27.90;93.70
39189;DHT22;24915;50.858;4.376;2023-10-08T12:41:26;27.50;94.50
39189;DHT22;24915;50.858;4.376;2023-10-08T12:43:52;27.60;94.70
39189;DHT22;24915;50.858;4.376;2023-10-08T12:46:19;27.90;94.80
39189;DHT22;24915;50.858;4.376;2023-10-08T12:48:50;27.90;94.40
39189;DHT22;24915;50.858;4.376;2023-10-08T12:51:23;27.70;94.20
39189;DHT22;24915;50.858;4.376;2023-10-08T12:53:50;27.60;94.10
39189;DHT22;24915;50.858;4.376;2023-10-08T12:56:23;27.60;94.20
39189;DHT22;24915;50.858;4.376;2023-10-08T12:58:57;27.80;93.80
39189;DHT22;24915;50.858;4.376;2023-10-08T13:01:23;28.00;94.00
39189;DHT22;24915;50.858;4.376;2023-10-08T13:03:49;28.30;93.60
39189;DHT22;24915;50.858;4.376;2023-10-08T13:06:17;28.60;93.70
39189;DHT22;24915;50.858;4.376;2023-10-08T13:09:09;28.70;93.30
39189;DHT22;24915;50.858;4.376;2023-10-08T13:11:38;28.40;93.10
39189;DHT22;24915;50.858;4.376;2023-10-08T13:14:04;28.20;92.80
39189;DHT22;24915;50.858;4.376;2023-10-08T13:16:30;27.80;93.20
39189;DHT22;24915;50.858;4.376;2023-10-08T13:19:03;27.80;93.20
39189;DHT22;24915;50.858;4.376;2023-10-08T13:21:30;28.00;93.50
39189;DHT22;24915;50.858;4.376;2023-10-08T13:23:57;28.70;93.00
39189;DHT22;24915;50.858;4.376;2023-10-08T13:26:26;29.20;92.80
39189;DHT22;24915;50.858;4.376;2023-10-08T13:28:56;29.40;91.00
39189;DHT22;24915;50.858;4.376;2023-10-08T13:31:24;29.10;91.30
39189;DHT22;24915;50.858;4.376;2023-10-08T13:33:50;29.00;92.30
39189;DHT22;24915;50.858;4.376;2023-10-08T13:36:18;29.30;91.90
39189;DHT22;24915;50.858;4.376;2023-10-08T13:38:44;29.50;91.50
39189;DHT22;24915;50.858;4.376;2023-10-08T13:41:12;30.00;91.30
39189;DHT22;24915;50.858;4.376;2023-10-08T13:43:42;30.00;90.00
39189;DHT22;24915;50.858;4.376;2023-10-08T13:46:12;29.70;90.70
39189;DHT22;24915;50.858;4.376;2023-10-08T13:48:40;29.70;90.30
39189;DHT22;24915;50.858;4.376;2023-10-08T13:51:06;29.70;90.00
39189;DHT22;24915;50.858;4.376;2023-10-08T13:53:39;29.50;90.20
39189;DHT22;24915;50.858;4.376;2023-10-08T13:56:05;29.70;90.30
39189;DHT22;24915;50.858;4.376;2023-10-08T13:58:32;29.70;90.40
39189;DHT22;24915;50.858;4.376;2023-10-08T14:01:01;30.10;90.50
39189;DHT22;24915;50.858;4.376;2023-10-08T14:03:28;30.50;90.00
39189;DHT22;24915;50.858;4.376;2023-10-08T14:05:58;30.80;88.10
39189;DHT22;24915;50.858;4.376;2023-10-08T14:08:29;31.10;89.30
39189;DHT22;24915;50.858;4.376;2023-10-08T14:10:55;31.40;86.20
39189;DHT22;24915;50.858;4.376;2023-10-08T14:13:29;31.60;85.70
39189;DHT22;24915;50.858;4.376;2023-10-08T14:15:57;31.90;85.60
39189;DHT22;24915;50.858;4.376;2023-10-08T14:18:23;32.70;84.00
39189;DHT22;24915;50.858;4.376;2023-10-08T14:20:57;33.60;82.10
39189;DHT22;24915;50.858;4.376;2023-10-08T14:23:23;34.20;80.80
39189;DHT22;24915;50.858;4.376;2023-10-08T14:25:52;34.60;77.70
39189;DHT22;24915;50.858;4.376;2023-10-08T14:28:20;34.60;77.30
39189;DHT22;24915;50.858;4.376;2023-10-08T14:31:06;34.80;76.40
39189;DHT22;24915;50.858;4.376;2023-10-08T14:33:32;34.70;76.40
39189;DHT22;24915;50.858;4.376;2023-10-08T14:36:08;35.10;76.40
39189;DHT22;24915;50.858;4.376;2023-10-08T14:38:52;35.90;74.60
39189;DHT22;24915;50.858;4.376;2023-10-08T14:41:36;35.90;73.10
39189;DHT22;24915;50.858;4.376;2023-10-08T14:44:20;35.80;73.10
39189;DHT22;24915;50.858;4.376;2023-10-08T14:46:46;36.30;72.10
39189;DHT22;24915;50.858;4.376;2023-10-08T14:49:12;36.70;71.00
39189;DHT22;24915;50.858;4.376;2023-10-08T14:51:38;36.40;69.70
39189;DHT22;24915;50.858;4.376;2023-10-08T14:54:06;36.40;70.40
39189;DHT22;24915;50.858;4.376;2023-10-08T14:56:34;36.60;69.40
39189;DHT22;24915;50.858;4.376;2023-10-08T14:59:02;36.80;68.50
39189;DHT22;24915;50.858;4.376;2023-10-08T15:01:28;36.70;69.10
39189;DHT22;24915;50.858;4.376;2023-10-08T15:03:53;36.50;68.50
39189;DHT22;24915;50.858;4.376;2023-10-08T15:06:19;35.80;69.40
39189;DHT22;24915;50.858;4.376;2023-10-08T15:08:46;35.00;71.90
39189;DHT22;24915;50.858;4.376;2023-10-08T15:11:12;34.40;72.10
39189;DHT22;24915;50.858;4.376;2023-10-08T15:13:37;34.10;72.70
39189;DHT22;24915;50.858;4.376;2023-10-08T15:16:09;33.70;73.90
39189;DHT22;24915;50.858;4.376;2023-10-08T15:18:35;33.80;73.40
39189;DHT22;24915;50.858;4.376;2023-10-08T15:21:08;33.90;73.50
39189;DHT22;24915;50.858;4.376;2023-10-08T15:23:34;33.50;74.80
39189;DHT22;24915;50.858;4.376;2023-10-08T15:26:01;33.20;74.80
39189;DHT22;24915;50.858;4.376;2023-10-08T15:28:28;32.30;76.40
39189;DHT22;24915;50.858;4.376;2023-10-08T15:30:54;31.50;78.10
39189;DHT22;24915;50.858;4.376;2023-10-08T15:33:19;30.30;81.30
39189;DHT22;24915;50.858;4.376;2023-10-08T15:35:45;28.90;84.70
39189;DHT22;24915;50.858;4.376;2023-10-08T15:38:11;28.20;87.40
39189;DHT22;24915;50.858;4.376;2023-10-08T15:40:38;27.80;88.60
39189;DHT22;24915;50.858;4.376;2023-10-08T15:43:04;27.10;90.40
39189;DHT22;24915;50.858;4.376;2023-10-08T15:45:29;26.60;90.90
39189;DHT22;24915;50.858;4.376;2023-10-08T15:47:55;26.50;91.10
39189;DHT22;24915;50.858;4.376;2023-10-08T15:50:22;26.30;91.40
39189;DHT22;24915;50.858;4.376;2023-10-08T15:52:50;25.80;91.90
39189;DHT22;24915;50.858;4.376;2023-10-08T15:55:16;25.50;92.40
39189;DHT22;24915;50.858;4.376;2023-10-08T15:57:43;25.20;92.90